Time;durP1;ratioP1;P1;durP2;ratioP2;P2;SDS_P1;SDS_P2;PMS_P1;PMS_P2;Temp;Humidity;BMP_temperature;BMP_pressure;BME280_temperature;BME280_humidity;BME280_pressure;Samples;Min_cycle;Max_cycle;Signal;HPM_P1;HPM_P2
2022/10/04 00:02:23;;;;;;;9.43;3.53;;;11.10;99.90;;;;;;5041726;28;20044;-45
2022/10/04 00:05:16;;;;;;;15.13;3.95;;;11.10;99.90;;;;;;5040491;28;20475;-46
2022/10/04 00:07:59;;;;;;;6.63;2.92;;;11.10;99.90;;;;;;5040807;28;20434;-45
2022/10/04 00:10:30;;;;;;;11.00;3.92;;;11.10;99.90;;;;;;5042252;28;20037;-45
2022/10/04 00:12:59;;;;;;;10.07;3.75;;;11.10;99.90;;;;;;5040632;28;20084;-46
2022/10/04 00:15:36;;;;;;;10.38;3.95;;;11.10;99.90;;;;;;5040477;28;20426;-45
2022/10/04 00:18:10;;;;;;;12.52;4.15;;;11.20;99.90;;;;;;5040584;28;20108;-46
2022/10/04 00:20:49;;;;;;;10.05;2.78;;;11.10;99.90;;;;;;5040380;28;20032;-45
2022/10/04 00:23:23;;;;;;;10.40;4.05;;;11.10;99.90;;;;;;5043078;28;20482;-45
2022/10/04 00:26:00;;;;;;;12.07;4.00;;;11.10;99.90;;;;;;5039763;28;20033;-44
2022/10/04 00:28:28;;;;;;;7.75;3.70;;;11.00;99.90;;;;;;5040295;28;20463;-45
2022/10/04 00:31:11;;;;;;;7.75;3.20;;;11.00;99.90;;;;;;5040121;28;20024;-46
2022/10/04 00:34:02;;;;;;;7.30;2.95;;;11.00;99.90;;;;;;5040547;28;20017;-45
2022/10/04 00:36:36;;;;;;;10.50;3.58;;;11.00;99.90;;;;;;5041811;28;20538;-46
2022/10/04 00:39:15;;;;;;;7.35;3.00;;;10.90;99.90;;;;;;5025355;28;20403;-46
2022/10/04 00:41:47;;;;;;;9.85;4.18;;;10.90;99.90;;;;;;5040171;28;20025;-46
2022/10/04 00:44:27;;;;;;;9.00;3.47;;;10.90;99.90;;;;;;5039525;28;20383;-46
2022/10/04 00:46:55;;;;;;;6.80;3.38;;;10.90;99.90;;;;;;5040022;28;20033;-46
2022/10/04 00:49:25;;;;;;;10.82;3.72;;;10.80;99.90;;;;;;5039961;28;20328;-46
2022/10/04 00:52:02;;;;;;;11.13;2.97;;;10.80;99.90;;;;;;5056119;28;20439;-45
2022/10/04 00:54:40;;;;;;;9.55;3.60;;;10.80;99.90;;;;;;5045675;28;20031;-45
2022/10/04 00:57:10;;;;;;;14.88;3.67;;;10.80;99.90;;;;;;5041525;28;20036;-45
2022/10/04 00:59:43;;;;;;;12.57;3.30;;;10.80;99.90;;;;;;5040212;28;20123;-44
2022/10/04 01:02:27;;;;;;;9.20;3.45;;;10.70;99.90;;;;;;5039130;28;20105;-46
2022/10/04 01:05:00;;;;;;;15.82;4.03;;;10.80;99.90;;;;;;5039663;28;20022;-44
2022/10/04 01:07:37;;;;;;;12.00;4.28;;;10.80;99.90;;;;;;5038877;28;20040;-44
2022/10/04 01:10:27;;;;;;;6.13;3.38;;;10.70;99.90;;;;;;5039411;28;20025;-44
2022/10/04 01:13:11;;;;;;;12.27;3.90;;;10.70;99.90;;;;;;5038725;28;20131;-45
2022/10/04 01:15:52;;;;;;;10.52;3.67;;;10.70;99.90;;;;;;5040393;28;20037;-44
2022/10/04 01:18:17;;;;;;;11.93;3.72;;;10.70;99.90;;;;;;5039932;28;20112;-45
2022/10/04 01:21:02;;;;;;;10.85;3.47;;;10.70;99.90;;;;;;5038007;28;20179;-45
2022/10/04 01:23:30;;;;;;;11.05;4.07;;;10.70;99.90;;;;;;5042305;28;20036;-45
2022/10/04 01:25:56;;;;;;;9.95;3.75;;;10.70;99.90;;;;;;5041523;28;20029;-44
2022/10/04 01:28:21;;;;;;;14.95;3.28;;;10.70;99.90;;;;;;5040359;28;20159;-45
2022/10/04 01:30:47;;;;;;;15.35;4.03;;;10.70;99.90;;;;;;5038637;28;20032;-44
2022/10/04 01:33:13;;;;;;;17.00;3.72;;;10.70;99.90;;;;;;5039228;28;20108;-45
2022/10/04 01:35:39;;;;;;;9.15;3.60;;;10.70;99.90;;;;;;5039791;28;20021;-45
2022/10/04 01:38:06;;;;;;;14.13;4.22;;;10.70;99.90;;;;;;5040293;28;20638;-45
2022/10/04 01:40:33;;;;;;;14.23;3.10;;;10.80;99.90;;;;;;5038676;28;20420;-46
2022/10/04 01:43:05;;;;;;;9.52;3.55;;;10.70;99.90;;;;;;5038808;28;20029;-45
2022/10/04 01:45:42;;;;;;;7.68;3.75;;;10.80;99.90;;;;;;5038738;28;20013;-45
2022/10/04 01:48:14;;;;;;;10.50;3.85;;;10.80;99.90;;;;;;5038257;28;20018;-44
2022/10/04 01:50:46;;;;;;;9.15;3.00;;;10.80;99.90;;;;;;5037724;28;20102;-45
2022/10/04 01:53:19;;;;;;;6.88;2.85;;;10.80;99.90;;;;;;5040606;28;20017;-46
2022/10/04 01:55:50;;;;;;;13.77;3.75;;;10.90;99.90;;;;;;5041844;28;20024;-44
2022/10/04 01:58:26;;;;;;;14.80;3.42;;;10.80;99.90;;;;;;5039160;28;20022;-46
2022/10/04 02:01:03;;;;;;;13.13;3.58;;;10.90;99.90;;;;;;5038450;28;20060;-45
2022/10/04 02:03:35;;;;;;;18.08;3.05;;;10.90;99.90;;;;;;5037578;28;20017;-45
2022/10/04 02:06:06;;;;;;;11.45;2.88;;;10.90;99.90;;;;;;5038773;28;20027;-45
2022/10/04 02:08:36;;;;;;;6.95;3.30;;;11.00;99.90;;;;;;5038070;28;20060;-44
2022/10/04 02:11:03;;;;;;;8.38;2.70;;;10.90;99.90;;;;;;5040411;28;20048;-45
2022/10/04 02:13:36;;;;;;;8.32;3.10;;;10.90;99.90;;;;;;5029358;28;20475;-45
2022/10/04 02:16:03;;;;;;;10.80;3.53;;;10.90;99.90;;;;;;5029996;28;20502;-44
2022/10/04 02:18:30;;;;;;;11.45;3.47;;;10.90;99.90;;;;;;5031193;28;20026;-45
2022/10/04 02:20:57;;;;;;;11.27;3.35;;;11.00;99.90;;;;;;5036304;28;20313;-44
2022/10/04 02:23:23;;;;;;;10.88;3.58;;;10.90;99.90;;;;;;5040089;28;20016;-45
2022/10/04 02:25:50;;;;;;;8.40;2.80;;;11.00;99.90;;;;;;5034161;28;20036;-44
2022/10/04 02:28:17;;;;;;;16.08;3.17;;;11.00;99.90;;;;;;5032257;28;20013;-46
2022/10/04 02:33:45;;;;;;;7.22;3.00;;;10.90;99.90;;;;;;5032553;28;20556;-46
2022/10/04 02:36:12;;;;;;;12.00;3.80;;;10.90;99.90;;;;;;5037865;28;20041;-46
2022/10/04 02:38:42;;;;;;;5.45;3.15;;;10.90;99.90;;;;;;5038471;28;20017;-44
2022/10/04 02:41:13;;;;;;;;;;;10.90;99.90;;;;;;5039998;28;20029;-45
2022/10/04 02:43:52;;;;;;;12.23;3.60;;;10.90;99.90;;;;;;5036878;28;19909;-45
2022/10/04 02:46:27;;;;;;;9.23;3.25;;;10.90;99.90;;;;;;5038541;28;20049;-45
2022/10/04 02:49:03;;;;;;;11.38;2.83;;;10.90;99.90;;;;;;5037924;28;20486;-48
2022/10/04 02:51:45;;;;;;;14.43;4.82;;;10.90;99.90;;;;;;5037053;28;20171;-45
2022/10/04 02:54:17;;;;;;;7.55;3.10;;;10.90;99.90;;;;;;5042752;28;20525;-45
2022/10/04 02:56:43;;;;;;;13.73;3.28;;;10.90;99.90;;;;;;5035211;28;20021;-47
2022/10/04 02:59:15;;;;;;;12.95;4.07;;;10.90;99.90;;;;;;5040271;28;20394;-48
2022/10/04 03:01:56;;;;;;;9.98;3.20;;;10.90;99.90;;;;;;5039257;28;20029;-46
2022/10/04 03:04:37;;;;;;;18.92;4.97;;;10.90;99.90;;;;;;5038872;28;20018;-46
2022/10/04 03:07:04;;;;;;;;;;;10.90;99.90;;;;;;5039635;28;20041;-45
2022/10/04 03:09:30;;;;;;;16.23;4.93;;;10.90;99.90;;;;;;5037562;28;19951;-45
2022/10/04 03:11:56;;;;;;;9.07;3.53;;;10.90;99.90;;;;;;5039427;28;20035;-45
2022/10/04 03:14:27;;;;;;;7.75;3.75;;;10.90;99.90;;;;;;5039025;28;20033;-46
2022/10/04 03:16:53;;;;;;;;;;;10.90;99.90;;;;;;5038829;28;20406;-50
2022/10/04 03:19:22;;;;;;;7.85;2.85;;;10.90;99.90;;;;;;5038453;28;19916;-45
2022/10/04 03:21:50;;;;;;;8.57;3.40;;;10.90;99.90;;;;;;5038093;28;20024;-45
2022/10/04 03:24:23;;;;;;;7.57;2.97;;;10.90;99.90;;;;;;5044794;28;20457;-45
2022/10/04 03:26:54;;;;;;;8.02;3.00;;;10.90;99.90;;;;;;5037534;28;20086;-45
2022/10/04 03:29:22;;;;;;;9.50;3.08;;;10.90;99.90;;;;;;5038420;28;20021;-45
2022/10/04 03:31:51;;;;;;;13.20;4.35;;;10.90;99.90;;;;;;5038211;28;20040;-45
2022/10/04 03:34:20;;;;;;;8.25;2.80;;;10.90;99.90;;;;;;5037773;28;20022;-45
2022/10/04 03:36:48;;;;;;;9.15;3.00;;;10.90;99.90;;;;;;5040935;28;20514;-45
2022/10/04 03:39:36;;;;;;;6.45;2.78;;;11.00;99.90;;;;;;5042654;28;20025;-45
2022/10/04 03:42:06;;;;;;;13.73;3.38;;;10.90;99.90;;;;;;5042523;28;20022;-46
2022/10/04 03:44:33;;;;;;;10.43;2.97;;;10.90;99.90;;;;;;5041228;28;20029;-45
2022/10/04 03:47:00;;;;;;;19.27;3.72;;;10.90;99.90;;;;;;5040342;28;20153;-45
2022/10/04 03:49:32;;;;;;;8.40;2.90;;;10.90;99.90;;;;;;5042673;28;20014;-46
2022/10/04 03:51:59;;;;;;;10.40;2.80;;;10.90;99.90;;;;;;5039757;28;20073;-45
2022/10/04 03:54:26;;;;;;;7.32;2.97;;;10.90;99.90;;;;;;5047614;28;20029;-46
2022/10/04 03:56:54;;;;;;;10.88;2.75;;;11.00;99.90;;;;;;5039786;28;20441;-48
2022/10/04 03:59:21;;;;;;;5.78;2.83;;;10.90;99.90;;;;;;5042191;28;20346;-48
2022/10/04 04:01:49;;;;;;;7.80;2.60;;;10.90;99.90;;;;;;5039265;28;20029;-46
2022/10/04 04:04:29;;;;;;;7.50;2.80;;;10.90;99.90;;;;;;5040364;28;20017;-45
2022/10/04 04:07:06;;;;;;;7.95;2.53;;;10.90;99.90;;;;;;5040995;28;20032;-46
2022/10/04 04:09:51;;;;;;;13.32;2.78;;;10.90;99.90;;;;;;5042272;28;20014;-45
2022/10/04 04:12:39;;;;;;;12.13;2.45;;;10.90;99.90;;;;;;5046558;28;20025;-46
2022/10/04 04:15:12;;;;;;;9.30;2.80;;;10.90;99.90;;;;;;5041453;28;20022;-45
2022/10/04 04:17:40;;;;;;;9.23;2.80;;;10.90;99.90;;;;;;5039478;28;20563;-45
2022/10/04 04:20:26;;;;;;;9.43;2.60;;;10.90;99.90;;;;;;5045218;28;20124;-45
2022/10/04 04:22:59;;;;;;;14.60;2.88;;;10.90;99.90;;;;;;5038211;28;20027;-46
2022/10/04 04:25:27;;;;;;;7.38;2.92;;;11.00;99.90;;;;;;5039196;28;20029;-46
2022/10/04 04:28:01;;;;;;;17.60;2.80;;;11.00;99.90;;;;;;5040821;28;20625;-48
2022/10/04 04:30:30;;;;;;;8.73;2.83;;;11.00;99.90;;;;;;5041479;28;20017;-44
2022/10/04 04:32:59;;;;;;;9.48;2.72;;;11.00;99.90;;;;;;5040400;28;20049;-45
2022/10/04 04:35:32;;;;;;;6.80;3.00;;;10.90;99.90;;;;;;5031797;28;20431;-48
2022/10/04 04:38:13;;;;;;;10.85;2.63;;;11.00;99.90;;;;;;5030329;28;20034;-46
2022/10/04 04:40:39;;;;;;;10.25;3.90;;;11.00;99.90;;;;;;5037674;28;20091;-47
2022/10/04 04:43:04;;;;;;;7.28;2.58;;;11.00;99.90;;;;;;5051037;28;20025;-45
2022/10/04 04:45:32;;;;;;;9.68;2.90;;;11.00;99.90;;;;;;5052405;28;20028;-47
2022/10/04 04:48:00;;;;;;;9.98;2.70;;;11.00;99.90;;;;;;5050620;28;20025;-46
2022/10/04 04:50:38;;;;;;;6.47;2.42;;;11.00;99.90;;;;;;5052598;28;20013;-48
2022/10/04 04:53:27;;;;;;;6.20;2.63;;;11.00;99.90;;;;;;5056499;28;20398;-47
2022/10/04 04:55:57;;;;;;;6.35;2.20;;;11.00;99.90;;;;;;5066887;28;20025;-46
2022/10/04 04:58:26;;;;;;;7.30;2.72;;;11.00;99.90;;;;;;5070946;28;20100;-47
2022/10/04 05:01:15;;;;;;;8.45;2.40;;;11.00;99.90;;;;;;5071035;28;20232;-48
2022/10/04 05:03:41;;;;;;;10.70;2.75;;;11.00;99.90;;;;;;5069726;28;20115;-46
2022/10/04 05:06:24;;;;;;;17.35;3.42;;;11.00;99.90;;;;;;5030755;28;20430;-45
2022/10/04 05:08:50;;;;;;;10.80;2.65;;;11.00;99.90;;;;;;5029555;28;20013;-46
2022/10/04 05:11:18;;;;;;;8.50;2.30;;;11.10;99.90;;;;;;5030454;28;20033;-45
2022/10/04 05:13:53;;;;;;;8.70;2.45;;;11.10;99.90;;;;;;5030312;28;20052;-46
2022/10/04 05:16:25;;;;;;;8.40;3.13;;;11.10;99.90;;;;;;5030965;28;20024;-45
2022/10/04 05:19:00;;;;;;;7.60;2.15;;;11.00;99.90;;;;;;5030676;28;20112;-45
2022/10/04 05:21:29;;;;;;;9.32;2.97;;;11.10;99.90;;;;;;5030702;28;20454;-46
2022/10/04 05:23:57;;;;;;;9.38;2.78;;;11.10;99.90;;;;;;5054423;28;20029;-46
2022/10/04 05:26:29;;;;;;;5.40;2.40;;;11.10;99.90;;;;;;5070196;28;20437;-46
2022/10/04 05:29:00;;;;;;;13.23;2.95;;;11.10;99.90;;;;;;5070879;28;20324;-46
2022/10/04 05:31:34;;;;;;;7.75;2.92;;;11.10;99.90;;;;;;5070903;28;20025;-45
2022/10/04 05:34:00;;;;;;;8.20;2.80;;;11.10;99.90;;;;;;5070397;28;20115;-45
2022/10/04 05:36:47;;;;;;;8.45;2.42;;;11.10;99.90;;;;;;5070703;28;20035;-46
2022/10/04 05:39:18;;;;;;;5.88;2.72;;;11.10;99.90;;;;;;5070611;28;20651;-45
2022/10/04 05:42:01;;;;;;;8.52;2.92;;;11.10;99.90;;;;;;5070074;28;20039;-45
2022/10/04 05:44:36;;;;;;;7.03;2.50;;;11.10;99.90;;;;;;5047055;28;20329;-45
2022/10/04 05:47:06;;;;;;;9.40;3.05;;;11.20;99.90;;;;;;5050562;28;20029;-47
2022/10/04 05:49:35;;;;;;;10.00;3.00;;;11.20;99.90;;;;;;5050825;28;20028;-46
2022/10/04 05:52:05;;;;;;;17.48;3.53;;;11.10;99.90;;;;;;5055416;28;20279;-46
2022/10/04 05:54:34;;;;;;;21.13;10.20;;;11.20;99.90;;;;;;5070018;28;20033;-45
2022/10/04 05:57:40;;;;;;;15.95;8.55;;;11.30;99.90;;;;;;5069932;28;20028;-46
2022/10/04 06:00:19;;;;;;;14.75;4.35;;;11.30;99.90;;;;;;5057737;28;20555;-45
2022/10/04 06:03:16;;;;;;;12.48;3.08;;;11.30;99.90;;;;;;5069361;28;20393;-45
2022/10/04 06:05:59;;;;;;;8.38;3.22;;;11.40;99.90;;;;;;5068417;28;20500;-46
2022/10/04 06:08:24;;;;;;;11.45;3.25;;;11.40;99.90;;;;;;5069801;28;20024;-45
2022/10/04 06:10:59;;;;;;;8.05;2.83;;;11.40;99.90;;;;;;5069952;28;20035;-45
2022/10/04 06:13:51;;;;;;;9.35;2.80;;;11.40;99.90;;;;;;5069375;28;20394;-46
2022/10/04 06:16:27;;;;;;;12.15;3.88;;;11.50;99.90;;;;;;5068434;28;20044;-45
2022/10/04 06:19:02;;;;;;;16.08;3.47;;;11.50;99.90;;;;;;5068182;28;20025;-45
2022/10/04 06:21:28;;;;;;;11.90;3.42;;;11.50;99.90;;;;;;5059550;28;20378;-46
2022/10/04 06:24:02;;;;;;;6.95;2.33;;;11.60;99.90;;;;;;5064399;28;20024;-46
2022/10/04 06:26:46;;;;;;;11.95;3.78;;;11.60;99.90;;;;;;5052257;28;20021;-46
2022/10/04 06:29:17;;;;;;;9.82;2.88;;;11.70;99.90;;;;;;5069404;28;20478;-46
2022/10/04 06:32:14;;;;;;;11.68;2.78;;;11.70;99.90;;;;;;5069541;28;20101;-46
2022/10/04 06:34:48;;;;;;;9.40;2.90;;;11.80;99.90;;;;;;5059352;28;20033;-47
2022/10/04 06:37:51;;;;;;;8.23;2.83;;;11.80;99.90;;;;;;5069066;28;20111;-45
2022/10/04 06:40:54;;;;;;;12.32;2.75;;;11.80;99.90;;;;;;5069285;28;20528;-45
2022/10/04 06:43:40;;;;;;;14.90;3.92;;;11.90;99.90;;;;;;5067436;28;20023;-46
2022/10/04 06:46:30;;;;;;;15.05;3.60;;;11.90;99.90;;;;;;5069420;28;20030;-48
2022/10/04 06:49:27;;;;;;;12.45;4.65;;;11.90;99.90;;;;;;5069425;28;20427;-49
2022/10/04 06:52:00;;;;;;;16.88;5.72;;;11.90;99.90;;;;;;5056025;28;20017;-45
2022/10/04 06:55:02;;;;;;;10.18;3.17;;;12.00;99.90;;;;;;5048563;28;20386;-45
2022/10/04 06:57:58;;;;;;;8.35;3.40;;;12.00;99.90;;;;;;5049140;28;20021;-47
2022/10/04 07:00:26;;;;;;;6.72;2.63;;;12.00;99.90;;;;;;5049412;28;20394;-46
2022/10/04 07:03:11;;;;;;;5.80;2.83;;;12.00;99.90;;;;;;5047378;28;20027;-46
2022/10/04 07:06:00;;;;;;;10.20;3.17;;;12.10;99.90;;;;;;5049074;28;20024;-45
2022/10/04 07:08:37;;;;;;;4.55;2.75;;;12.20;99.90;;;;;;5047476;28;20033;-48
2022/10/04 07:11:06;;;;;;;7.78;2.55;;;12.30;99.90;;;;;;5051700;28;20048;-48
2022/10/04 07:13:43;;;;;;;11.57;3.13;;;12.40;99.90;;;;;;5052007;28;20108;-46
2022/10/04 07:16:45;;;;;;;14.05;2.60;;;12.40;99.90;;;;;;5052181;28;20082;-46
2022/10/04 07:19:30;;;;;;;10.05;2.97;;;12.50;99.90;;;;;;5053019;28;20498;-47
2022/10/04 07:22:10;;;;;;;12.50;3.45;;;12.60;99.90;;;;;;5051663;28;20025;-45
2022/10/04 07:24:50;;;;;;;;;;;12.80;99.90;;;;;;5059354;28;20502;-45
2022/10/04 07:27:26;;;;;;;9.93;3.10;;;12.90;99.90;;;;;;5051784;28;19904;-46
2022/10/04 07:29:55;;;;;;;9.43;3.22;;;13.00;99.90;;;;;;5052821;28;20020;-45
2022/10/04 07:32:25;;;;;;;7.45;2.70;;;13.00;99.90;;;;;;5052424;28;20522;-46
2022/10/04 07:34:57;;;;;;;9.55;2.75;;;13.10;99.90;;;;;;5051611;28;20036;-46
2022/10/04 07:37:26;;;;;;;10.73;2.78;;;13.20;99.90;;;;;;5052438;28;20543;-46
2022/10/04 07:40:20;;;;;;;10.02;2.88;;;13.40;99.90;;;;;;5052692;28;20120;-46
2022/10/04 07:42:58;;;;;;;8.30;2.85;;;13.50;99.90;;;;;;5052566;28;20029;-47
2022/10/04 07:45:46;;;;;;;10.63;3.47;;;13.70;99.90;;;;;;5052526;28;20028;-47
2022/10/04 07:48:15;;;;;;;7.93;2.83;;;13.80;99.90;;;;;;5052863;28;20052;-48
2022/10/04 07:50:50;;;;;;;12.77;3.10;;;13.90;99.90;;;;;;5053043;28;20021;-46
2022/10/04 07:53:25;;;;;;;11.15;3.08;;;13.90;99.90;;;;;;5046683;28;20398;-47
2022/10/04 07:56:08;;;;;;;4.50;2.28;;;13.90;99.90;;;;;;5063865;28;20030;-47
2022/10/04 07:59:17;;;;;;;9.90;2.83;;;13.90;99.90;;;;;;5072419;28;20032;-45
2022/10/04 08:02:02;;;;;;;9.50;2.45;;;14.00;99.90;;;;;;5072208;28;20069;-49
2022/10/04 08:04:48;;;;;;;8.80;3.00;;;14.10;99.90;;;;;;5070441;28;20016;-47
2022/10/04 08:07:45;;;;;;;8.82;2.42;;;14.20;99.90;;;;;;5070726;28;20021;-47
2022/10/04 08:10:34;;;;;;;5.75;2.83;;;14.30;99.90;;;;;;5070630;28;20028;-46
2022/10/04 08:13:17;;;;;;;14.57;4.07;;;14.40;99.90;;;;;;5060043;28;20186;-46
2022/10/04 08:15:43;;;;;;;12.90;3.80;;;14.60;99.90;;;;;;5072174;28;20533;-48
2022/10/04 08:18:46;;;;;;;14.60;4.13;;;14.80;99.90;;;;;;5072161;28;20458;-46
2022/10/04 08:21:22;;;;;;;9.88;3.38;;;15.00;99.90;;;;;;5071513;28;20037;-46
2022/10/04 08:24:10;;;;;;;9.70;2.95;;;15.20;99.90;;;;;;5057007;28;20013;-46
2022/10/04 08:27:03;;;;;;;6.78;2.90;;;15.20;99.90;;;;;;5044077;28;20110;-46
2022/10/04 08:29:46;;;;;;;13.32;3.72;;;15.30;99.90;;;;;;5049774;28;20092;-46
2022/10/04 08:32:39;;;;;;;9.88;3.15;;;15.40;99.90;;;;;;5050520;28;20111;-46
2022/10/04 08:35:18;;;;;;;8.73;2.65;;;15.40;99.90;;;;;;5050589;28;20028;-47
2022/10/04 08:38:13;;;;;;;19.15;4.43;;;15.80;99.90;;;;;;5047781;28;20024;-47
2022/10/04 08:41:15;;;;;;;9.15;2.10;;;16.30;99.90;;;;;;5050443;28;20103;-47
2022/10/04 08:44:22;;;;;;;13.70;3.00;;;17.90;99.90;;;;;;5048725;28;20029;-47
2022/10/04 08:47:10;;;;;;;11.00;3.03;;;19.00;99.90;;;;;;5050304;28;20496;-47
2022/10/04 08:49:56;;;;;;;8.98;2.78;;;20.80;99.50;;;;;;5050050;28;20478;-47
2022/10/04 08:52:56;;;;;;;8.18;2.95;;;22.00;95.60;;;;;;5049402;28;20384;-47
2022/10/04 08:55:49;;;;;;;11.93;5.32;;;23.60;93.60;;;;;;5062214;28;20016;-48
2022/10/04 08:58:50;;;;;;;11.13;3.85;;;24.70;90.30;;;;;;5070993;28;20435;-47
2022/10/04 09:01:37;;;;;;;6.90;2.13;;;25.30;86.00;;;;;;5069530;28;20082;-48
2022/10/04 09:04:09;;;;;;;8.38;2.80;;;25.50;84.40;;;;;;5045164;28;20039;-48
2022/10/04 09:06:57;;;;;;;9.75;2.65;;;27.00;81.00;;;;;;5046782;28;20466;-47
2022/10/04 09:10:04;;;;;;;4.00;1.95;;;26.50;77.30;;;;;;5050011;28;20025;-49
2022/10/04 09:12:53;;;;;;;8.15;2.22;;;27.50;72.90;;;;;;5050280;28;20084;-47
2022/10/04 09:15:35;;;;;;;6.35;2.17;;;27.70;75.00;;;;;;5051081;28;20202;-47
2022/10/04 09:18:20;;;;;;;9.98;2.65;;;28.10;71.70;;;;;;5050703;28;20029;-50
2022/10/04 09:20:54;;;;;;;6.63;2.42;;;27.40;71.60;;;;;;5031811;28;20032;-48
2022/10/04 09:23:47;;;;;;;6.30;2.35;;;26.90;71.80;;;;;;5050748;28;20040;-50
2022/10/04 09:26:26;;;;;;;12.18;2.88;;;27.50;71.10;;;;;;5061807;28;20552;-48
2022/10/04 09:29:27;;;;;;;9.55;2.78;;;27.90;68.80;;;;;;5056795;28;20029;-48
2022/10/04 09:32:20;;;;;;;9.27;2.45;;;28.40;69.70;;;;;;5040887;28;20016;-48
2022/10/04 09:35:09;;;;;;;7.10;2.35;;;29.20;67.80;;;;;;5070355;28;20474;-49
2022/10/04 09:37:55;;;;;;;11.05;2.83;;;29.40;64.10;;;;;;5043109;28;20041;-49
2022/10/04 09:40:50;;;;;;;9.50;2.85;;;29.20;63.90;;;;;;5049952;28;20655;-50
2022/10/04 09:43:41;;;;;;;8.15;2.65;;;29.30;63.70;;;;;;5052526;28;20029;-47
2022/10/04 09:46:36;;;;;;;9.52;2.47;;;29.30;64.60;;;;;;5049832;28;20051;-51
2022/10/04 09:49:42;;;;;;;7.88;2.45;;;30.10;61.80;;;;;;5049925;28;20322;-47
2022/10/04 09:52:28;;;;;;;8.63;2.67;;;29.60;60.60;;;;;;5050034;28;20112;-49
2022/10/04 09:55:31;;;;;;;8.00;2.58;;;30.10;60.30;;;;;;5053445;28;20170;-49
2022/10/04 09:58:13;;;;;;;7.55;2.28;;;30.20;59.90;;;;;;5030052;28;20172;-50
2022/10/04 10:01:02;;;;;;;8.90;2.20;;;30.10;60.20;;;;;;5029588;28;20029;-48
2022/10/04 10:03:51;;;;;;;;;;;31.10;58.50;;;;;;5030046;28;20088;-47
2022/10/04 10:06:47;;;;;;;9.48;2.85;;;30.30;58.90;;;;;;5027768;28;20433;-48
2022/10/04 10:16:24;;;;;;;9.23;3.50;;;29.60;57.80;;;;;;5029632;28;20067;-49
2022/10/04 10:19:13;;;;;;;8.55;2.08;;;29.00;61.70;;;;;;5029431;28;20033;-49
2022/10/04 10:22:13;;;;;;;10.68;2.90;;;30.00;60.60;;;;;;5028017;28;20040;-48
2022/10/04 10:25:11;;;;;;;6.43;2.58;;;30.30;59.20;;;;;;5050650;28;20029;-48
2022/10/04 10:27:54;;;;;;;10.25;5.60;;;30.20;59.70;;;;;;5029434;28;20042;-48
2022/10/04 10:30:30;;;;;;;8.38;3.65;;;31.00;59.00;;;;;;5029564;28;20076;-47
2022/10/04 10:33:14;;;;;;;7.40;2.28;;;31.20;58.30;;;;;;5028145;28;20051;-49
2022/10/04 10:35:52;;;;;;;6.03;2.05;;;31.40;56.60;;;;;;5029601;28;20064;-50
2022/10/04 10:38:55;;;;;;;10.63;2.60;;;31.60;56.80;;;;;;5028922;28;20060;-47
2022/10/04 10:41:28;;;;;;;7.97;2.55;;;31.40;56.50;;;;;;5029735;28;20033;-48
2022/10/04 10:44:13;;;;;;;10.20;2.70;;;31.30;57.30;;;;;;5028978;28;20031;-47
2022/10/04 10:47:04;;;;;;;8.23;2.22;;;31.30;57.40;;;;;;5029263;28;20475;-48
2022/10/04 10:49:46;;;;;;;9.38;2.10;;;30.30;56.50;;;;;;5029152;28;20017;-48
2022/10/04 10:52:42;;;;;;;6.45;2.13;;;30.30;55.70;;;;;;5028881;28;20061;-47
2022/10/04 10:55:48;;;;;;;9.57;2.17;;;29.60;58.20;;;;;;5056380;28;20021;-48
2022/10/04 10:58:40;;;;;;;6.47;2.38;;;28.90;60.40;;;;;;5069200;28;20029;-47
2022/10/04 11:01:30;;;;;;;9.20;2.15;;;28.50;57.30;;;;;;5067351;28;20028;-47
2022/10/04 11:04:27;;;;;;;3.08;1.55;;;28.40;59.80;;;;;;5068835;28;20032;-48
2022/10/04 11:07:21;;;;;;;6.72;1.90;;;29.00;59.80;;;;;;5069172;28;20028;-48
2022/10/04 11:10:28;;;;;;;7.50;1.70;;;29.70;57.80;;;;;;5068936;28;20029;-47
2022/10/04 11:13:24;;;;;;;5.63;1.60;;;30.00;56.50;;;;;;5067399;28;20021;-48
2022/10/04 11:16:10;;;;;;;9.13;2.10;;;30.10;57.00;;;;;;5069398;28;20052;-48
2022/10/04 11:18:58;;;;;;;6.40;1.75;;;29.50;55.80;;;;;;5068922;28;20607;-47
2022/10/04 11:21:29;;;;;;;8.77;2.10;;;29.40;59.70;;;;;;5068840;28;20024;-48
2022/10/04 11:24:30;;;;;;;6.10;1.83;;;29.60;57.10;;;;;;5058268;28;20366;-50
2022/10/04 11:27:51;;;;;;;10.88;2.17;;;28.40;59.10;;;;;;5059896;28;20031;-47
2022/10/04 11:30:25;;;;;;;6.53;2.25;;;27.80;61.50;;;;;;5024761;28;20131;-49
2022/10/04 11:33:09;;;;;;;7.43;2.50;;;27.80;61.90;;;;;;5068489;28;20024;-49
2022/10/04 11:36:02;;;;;;;6.57;1.83;;;28.40;60.70;;;;;;5068984;28;20021;-48
2022/10/04 11:38:49;;;;;;;4.72;1.70;;;29.20;58.50;;;;;;5068487;28;20021;-48
2022/10/04 11:41:41;;;;;;;8.95;1.88;;;28.80;55.90;;;;;;5069032;28;20354;-50
2022/10/04 11:44:33;;;;;;;5.57;2.03;;;29.70;56.60;;;;;;5050443;28;20055;-48
2022/10/04 11:47:24;;;;;;;6.20;1.52;;;28.90;55.80;;;;;;5067678;28;20332;-49
2022/10/04 11:50:23;;;;;;;9.55;1.77;;;28.70;57.60;;;;;;5067537;28;20031;-47
2022/10/04 11:53:15;;;;;;;7.50;2.05;;;27.60;59.30;;;;;;5060518;28;20022;-48
2022/10/04 11:55:53;;;;;;;5.40;2.13;;;27.90;59.20;;;;;;5050905;28;20044;-47
2022/10/04 11:58:38;;;;;;;4.90;1.60;;;27.60;58.00;;;;;;5051352;28;20433;-47
2022/10/04 12:01:10;;;;;;;6.32;1.92;;;27.60;63.40;;;;;;5052582;28;20060;-47
2022/10/04 12:04:20;;;;;;;6.25;1.70;;;28.30;58.20;;;;;;5051454;28;20478;-47
2022/10/04 12:07:42;;;;;;;8.07;2.25;;;28.30;59.30;;;;;;5052025;28;20092;-48
2022/10/04 12:10:10;;;;;;;12.57;2.70;;;27.30;59.10;;;;;;5029213;28;20624;-47
2022/10/04 12:12:42;;;;;;;4.05;1.55;;;26.50;59.30;;;;;;5028945;28;20045;-47
2022/10/04 12:15:41;;;;;;;8.35;1.85;;;27.00;60.80;;;;;;5040903;28;20509;-47
2022/10/04 12:18:29;;;;;;;6.18;1.77;;;27.00;61.80;;;;;;5051797;28;20033;-47
2022/10/04 12:21:34;;;;;;;5.40;1.92;;;26.50;63.40;;;;;;5052032;28;20120;-46
2022/10/04 12:24:25;;;;;;;5.93;1.73;;;25.60;60.90;;;;;;5054509;28;20082;-47
2022/10/04 12:27:16;;;;;;;6.78;1.90;;;24.90;65.10;;;;;;5067277;28;20185;-47
2022/10/04 12:29:57;;;;;;;6.85;2.15;;;25.00;67.60;;;;;;5070642;28;20056;-48
2022/10/04 12:32:33;;;;;;;7.35;1.90;;;25.00;64.60;;;;;;5071558;28;20086;-46
2022/10/04 12:35:21;;;;;;;11.57;2.25;;;24.80;65.60;;;;;;5071531;28;20036;-46
2022/10/04 12:38:07;;;;;;;6.25;2.13;;;24.50;68.30;;;;;;5071560;28;20027;-47
2022/10/04 12:40:58;;;;;;;9.60;1.88;;;23.80;65.80;;;;;;5071633;28;20025;-47
2022/10/04 12:43:55;;;;;;;8.02;2.30;;;23.90;66.50;;;;;;5071329;28;20060;-47
2022/10/04 12:46:20;;;;;;;7.65;2.30;;;23.60;66.90;;;;;;5071622;28;20024;-49
2022/10/04 12:49:30;;;;;;;7.13;2.40;;;23.30;65.20;;;;;;5071749;28;20100;-48
2022/10/04 12:52:24;;;;;;;7.25;2.08;;;22.80;68.60;;;;;;5060921;28;20525;-46
2022/10/04 12:55:09;;;;;;;7.40;2.10;;;22.40;68.60;;;;;;5051480;28;20032;-47
2022/10/04 12:58:20;;;;;;;6.80;2.28;;;22.00;68.50;;;;;;5009152;28;20044;-46
2022/10/04 13:00:46;;;;;;;;;;;22.40;70.70;;;;;;5029082;28;20029;-47
2022/10/04 13:03:39;;;;;;;7.97;2.20;;;22.70;69.00;;;;;;5027855;28;19909;-48
2022/10/04 13:06:34;;;;;;;4.97;1.98;;;22.80;68.40;;;;;;5030186;28;20645;-48
2022/10/04 13:09:14;;;;;;;8.23;2.75;;;22.60;67.60;;;;;;5030521;28;20021;-46
2022/10/04 13:12:16;;;;;;;6.27;2.43;;;22.60;69.80;;;;;;5030953;28;20036;-46
2022/10/04 13:15:02;;;;;;;8.55;2.45;;;22.50;68.30;;;;;;5029668;28;20040;-46
2022/10/04 13:18:03;;;;;;;6.20;2.40;;;22.40;68.30;;;;;;5030598;28;20034;-47
2022/10/04 13:20:43;;;;;;;5.90;1.95;;;22.30;69.10;;;;;;5027098;28;20039;-47
2022/10/04 13:23:30;;;;;;;5.90;2.33;;;22.30;68.50;;;;;;5034406;28;20029;-46
2022/10/04 13:26:29;;;;;;;5.13;1.67;;;22.00;66.20;;;;;;5046945;28;20427;-46
2022/10/04 13:29:07;;;;;;;8.52;2.10;;;21.30;69.40;;;;;;5049721;28;20021;-47
2022/10/04 13:31:51;;;;;;;5.07;1.85;;;20.80;68.60;;;;;;5047082;28;20067;-46
2022/10/04 13:34:34;;;;;;;6.15;2.40;;;21.10;71.70;;;;;;5040770;28;20305;-47
2022/10/04 13:37:22;;;;;;;3.08;1.50;;;21.20;68.30;;;;;;5049897;28;20117;-47
2022/10/04 13:40:13;;;;;;;4.03;1.80;;;21.20;69.40;;;;;;5038362;28;20481;-46
2022/10/04 13:42:50;;;;;;;3.88;1.85;;;21.50;70.50;;;;;;5038026;28;20071;-48
2022/10/04 13:45:36;;;;;;;5.00;2.00;;;21.50;68.90;;;;;;5038652;28;20021;-47
2022/10/04 13:48:16;;;;;;;5.93;1.95;;;21.40;68.30;;;;;;5027877;28;20033;-47
2022/10/04 13:51:19;;;;;;;11.63;2.80;;;21.40;69.00;;;;;;5024884;28;20018;-47
2022/10/04 13:57:16;;;;;;;5.70;2.33;;;21.50;67.80;;;;;;5059300;28;20093;-47
2022/10/04 13:59:44;;;;;;;4.50;1.90;;;21.30;68.60;;;;;;5052791;28;20021;-48
2022/10/04 14:02:36;;;;;;;5.22;2.67;;;21.00;70.70;;;;;;5046790;28;20028;-46
2022/10/04 14:05:39;;;;;;;5.38;2.40;;;20.80;70.90;;;;;;5046804;28;20336;-45
2022/10/04 14:08:23;;;;;;;5.75;2.22;;;21.10;71.20;;;;;;5047513;28;20017;-48
2022/10/04 14:11:25;;;;;;;6.05;2.38;;;21.20;70.50;;;;;;5048276;28;20021;-46